createdAt,value
2023-04-24T00:01:10.028Z,12.60
2023-04-24T00:03:38.136Z,12.60
2023-04-24T00:06:06.361Z,12.50
2023-04-24T00:08:33.387Z,12.50
2023-04-24T00:11:00.222Z,12.40
2023-04-24T00:13:27.119Z,12.40
2023-04-24T00:15:53.918Z,12.40
2023-04-24T00:18:20.784Z,12.30
2023-04-24T00:20:47.705Z,12.40
2023-04-24T00:23:14.709Z,12.30
2023-04-24T00:25:41.554Z,12.30
2023-04-24T00:28:08.354Z,12.20
2023-04-24T00:30:35.282Z,12.20
2023-04-24T00:33:02.140Z,12.20
2023-04-24T00:35:28.946Z,12.10
2023-04-24T00:37:55.848Z,12.10
2023-04-24T00:40:22.758Z,12.10
2023-04-24T00:42:49.967Z,12.00
2023-04-24T00:45:17.025Z,12.00
2023-04-24T00:47:44.039Z,12.00
2023-04-24T00:50:12.343Z,11.90
2023-04-24T00:52:41.909Z,11.90
2023-04-24T00:55:09.496Z,11.90
2023-04-24T00:57:36.783Z,11.80
2023-04-24T01:00:06.834Z,11.80
2023-04-24T01:02:35.783Z,11.80
2023-04-24T01:05:03.034Z,11.80
2023-04-24T01:07:30.341Z,11.80
2023-04-24T01:09:57.365Z,11.70
2023-04-24T01:12:24.276Z,11.70
2023-04-24T01:14:51.084Z,11.50
2023-04-24T01:17:17.964Z,11.40
2023-04-24T01:19:46.087Z,11.30
2023-04-24T01:22:15.678Z,11.30
2023-04-24T01:24:43.292Z,11.20
2023-04-24T01:27:11.416Z,11.20
2023-04-24T01:29:38.317Z,11.10
2023-04-24T01:32:06.196Z,11.10
2023-04-24T01:34:33.481Z,11.10
2023-04-24T01:37:00.812Z,11.00
2023-04-24T01:39:29.536Z,11.00
2023-04-24T01:41:57.260Z,11.00
2023-04-24T01:44:24.689Z,11.00
2023-04-24T01:46:51.812Z,10.90
2023-04-24T01:49:18.921Z,10.90
2023-04-24T01:51:46.320Z,10.90
2023-04-24T01:54:13.577Z,10.90
2023-04-24T01:56:44.551Z,10.90
2023-04-24T01:59:15.893Z,10.90
2023-04-24T02:01:42.738Z,10.80
2023-04-24T02:04:10.181Z,10.80
2023-04-24T02:06:37.648Z,10.70
2023-04-24T02:09:04.612Z,10.70
2023-04-24T02:11:31.606Z,10.60
2023-04-24T02:13:58.662Z,10.60
2023-04-24T02:16:26.024Z,10.60
2023-04-24T02:18:52.974Z,10.60
2023-04-24T02:21:19.808Z,10.60
2023-04-24T02:23:46.676Z,10.70
2023-04-24T02:26:13.579Z,10.70
2023-04-24T02:28:40.695Z,10.70
2023-04-24T02:31:07.725Z,10.70
2023-04-24T02:33:34.829Z,10.70
2023-04-24T02:36:01.854Z,10.60
2023-04-24T02:38:28.667Z,10.50
2023-04-24T02:40:55.516Z,10.50
2023-04-24T02:43:22.422Z,10.40
2023-04-24T02:45:49.964Z,10.30
2023-04-24T02:48:16.891Z,10.20
2023-04-24T02:50:43.618Z,10.20
2023-04-24T02:53:10.358Z,10.20
2023-04-24T02:55:37.149Z,10.10
2023-04-24T02:58:03.958Z,10.00
2023-04-24T03:00:31.001Z,10.10
2023-04-24T03:02:58.044Z,10.10
2023-04-24T03:05:24.924Z,10.20
2023-04-24T03:07:53.642Z,10.10
2023-04-24T03:10:20.717Z,10.20
2023-04-24T03:12:47.540Z,10.20
2023-04-24T03:15:14.385Z,10.30
2023-04-24T03:17:41.282Z,10.20
2023-04-24T03:20:11.838Z,10.20
2023-04-24T03:22:38.702Z,10.20
2023-04-24T03:25:06.299Z,10.30
2023-04-24T03:27:33.171Z,10.20
2023-04-24T03:30:00.043Z,10.20
2023-04-24T03:32:26.950Z,10.10
2023-04-24T03:34:54.326Z,10.20
2023-04-24T03:37:21.154Z,10.10
2023-04-24T03:39:48.006Z,10.00
2023-04-24T03:42:14.784Z,9.90
2023-04-24T03:44:41.581Z,9.80
2023-04-24T03:47:08.376Z,9.80
2023-04-24T03:49:35.224Z,9.70
2023-04-24T03:52:02.027Z,9.70
2023-04-24T03:54:28.911Z,9.70
2023-04-24T03:56:55.679Z,9.70
2023-04-24T03:59:22.481Z,10.00
2023-04-24T04:01:49.414Z,10.10
2023-04-24T04:04:16.439Z,10.20
2023-04-24T04:06:45.121Z,10.20
2023-04-24T04:09:12.160Z,10.20
2023-04-24T04:11:39.067Z,10.10
2023-04-24T04:14:06.364Z,10.20
2023-04-24T04:16:33.319Z,10.20
2023-04-24T04:19:00.338Z,10.20
2023-04-24T04:21:28.125Z,10.20
2023-04-24T04:23:54.936Z,10.20
2023-04-24T04:26:22.218Z,10.10
2023-04-24T04:28:50.036Z,10.10
2023-04-24T04:31:16.906Z,10.00
2023-04-24T04:33:43.705Z,10.00
2023-04-24T04:36:10.530Z,10.00
2023-04-24T04:38:38.020Z,9.90
2023-04-24T04:41:05.424Z,9.90
2023-04-24T04:43:33.627Z,10.00
2023-04-24T04:46:01.765Z,9.90
2023-04-24T04:48:29.673Z,9.90
2023-04-24T04:50:56.510Z,9.90
2023-04-24T04:53:23.288Z,9.90
2023-04-24T04:55:50.331Z,10.00
2023-04-24T04:58:17.231Z,10.10
2023-04-24T05:00:44.228Z,10.10
2023-04-24T05:03:20.773Z,10.20
2023-04-24T05:05:48.451Z,10.20
2023-04-24T05:10:45.022Z,10.20
2023-04-24T05:13:13.977Z,10.20
2023-04-24T05:15:41.078Z,10.20
2023-04-24T05:18:07.991Z,10.20
2023-04-24T05:20:34.930Z,10.30
2023-04-24T05:23:01.703Z,10.30
2023-04-24T05:25:28.531Z,10.30
2023-04-24T05:27:55.603Z,10.30
2023-04-24T05:30:22.482Z,10.40
2023-04-24T05:32:49.464Z,10.40
2023-04-24T05:35:16.369Z,10.50
2023-04-24T05:37:43.199Z,10.50
2023-04-24T05:40:10.603Z,10.60
2023-04-24T05:42:37.482Z,10.70
2023-04-24T05:45:05.183Z,10.80
2023-04-24T05:47:32.017Z,10.90
2023-04-24T05:49:58.826Z,11.10
2023-04-24T05:52:25.608Z,11.30
2023-04-24T05:54:52.378Z,11.50
2023-04-24T05:57:19.344Z,11.70
2023-04-24T05:59:46.497Z,11.80
2023-04-24T06:02:13.389Z,12.00
2023-04-24T06:04:41.170Z,12.10
2023-04-24T06:07:08.192Z,12.30
2023-04-24T06:09:34.954Z,12.40
2023-04-24T06:12:01.817Z,12.50
2023-04-24T06:14:28.576Z,12.50
2023-04-24T06:16:55.927Z,12.50
2023-04-24T06:19:22.797Z,12.60
2023-04-24T06:21:49.587Z,12.60
2023-04-24T06:24:17.668Z,12.60
2023-04-24T06:26:44.447Z,12.70
2023-04-24T06:29:11.274Z,12.90
2023-04-24T06:31:38.357Z,12.90
2023-04-24T06:34:05.271Z,12.80
2023-04-24T06:36:33.580Z,12.90
2023-04-24T06:39:00.388Z,13.00
2023-04-24T06:41:27.435Z,13.00
2023-04-24T06:43:54.250Z,13.00
2023-04-24T06:46:23.338Z,13.10
2023-04-24T06:48:50.852Z,13.10
2023-04-24T06:51:19.114Z,13.10
2023-04-24T06:53:47.599Z,13.10
2023-04-24T06:56:15.492Z,13.10
2023-04-24T06:58:42.817Z,13.10
2023-04-24T07:01:11.227Z,13.00
2023-04-24T07:03:38.239Z,13.00
2023-04-24T07:06:06.915Z,12.90
2023-04-24T07:08:34.220Z,12.80
2023-04-24T07:11:01.492Z,12.60
2023-04-24T07:13:28.362Z,12.50
2023-04-24T07:15:56.209Z,12.40
2023-04-24T07:18:23.846Z,12.30
2023-04-24T07:20:53.445Z,12.20
2023-04-24T07:23:21.111Z,12.10
2023-04-24T07:25:48.010Z,12.20
2023-04-24T07:28:14.875Z,12.30
2023-04-24T07:30:41.659Z,12.20
2023-04-24T07:33:08.692Z,12.10
2023-04-24T07:35:36.458Z,12.10
2023-04-24T07:38:03.282Z,12.10
2023-04-24T07:40:30.103Z,12.10
2023-04-24T07:42:56.861Z,11.90
2023-04-24T07:45:24.891Z,11.80
2023-04-24T07:47:52.055Z,11.80
2023-04-24T07:50:19.004Z,11.80
2023-04-24T07:52:45.908Z,11.80
2023-04-24T07:55:12.774Z,11.70
2023-04-24T07:57:39.668Z,11.70
2023-04-24T08:00:07.111Z,11.90
2023-04-24T08:02:34.141Z,12.00
2023-04-24T08:05:01.169Z,12.10
2023-04-24T08:07:28.006Z,12.20
2023-04-24T08:09:55.005Z,12.30
2023-04-24T08:12:21.879Z,12.50
2023-04-24T08:14:48.649Z,12.30
2023-04-24T08:17:15.804Z,12.20
2023-04-24T08:19:49.179Z,12.10
2023-04-24T08:22:16.745Z,12.00
2023-04-24T08:24:43.600Z,12.20
2023-04-24T08:27:11.397Z,12.50
2023-04-24T08:29:38.258Z,12.50
2023-04-24T08:32:05.078Z,12.50
2023-04-24T08:34:31.872Z,12.60
2023-04-24T08:36:58.768Z,12.60
2023-04-24T08:39:25.610Z,12.80
2023-04-24T08:41:53.987Z,12.70
2023-04-24T08:44:21.286Z,12.70
2023-04-24T08:46:49.922Z,12.50
2023-04-24T08:49:19.543Z,12.40
2023-04-24T08:51:48.138Z,12.10
2023-04-24T08:54:15.162Z,12.20
2023-04-24T08:56:45.906Z,12.00
2023-04-24T08:59:13.655Z,11.90
2023-04-24T09:01:42.118Z,11.90
2023-04-24T09:04:14.398Z,12.10
2023-04-24T09:06:41.505Z,12.40
2023-04-24T09:09:09.302Z,12.50
2023-04-24T09:11:38.214Z,12.70
2023-04-24T09:14:05.534Z,13.00
2023-04-24T09:16:36.488Z,13.10
2023-04-24T09:19:04.293Z,13.10
2023-04-24T09:21:36.140Z,13.10
2023-04-24T09:24:08.762Z,12.90
2023-04-24T09:26:38.733Z,12.60
2023-04-24T09:29:06.138Z,12.40
2023-04-24T09:31:33.101Z,12.20
2023-04-24T09:34:06.422Z,12.30
2023-04-24T09:36:39.422Z,12.10
2023-04-24T09:39:14.727Z,12.10
2023-04-24T09:42:03.400Z,12.10
2023-04-24T09:44:30.448Z,12.40
2023-04-24T09:46:59.375Z,12.60
2023-04-24T09:49:31.284Z,12.70
2023-04-24T09:52:06.208Z,12.80
2023-04-24T09:54:33.210Z,13.20
2023-04-24T09:57:01.475Z,13.50
2023-04-24T09:59:28.824Z,13.50
2023-04-24T10:01:56.159Z,13.40
2023-04-24T10:04:25.552Z,13.20
2023-04-24T10:06:54.172Z,13.40
2023-04-24T10:09:23.124Z,13.50
2023-04-24T10:11:52.936Z,13.30
2023-04-24T10:14:21.976Z,13.10
2023-04-24T10:16:50.144Z,13.20
2023-04-24T10:19:19.693Z,13.30
2023-04-24T10:21:49.810Z,13.60
2023-04-24T10:24:18.398Z,13.70
2023-04-24T10:26:46.894Z,13.30
2023-04-24T10:29:16.518Z,13.30
2023-04-24T10:31:46.615Z,13.50
2023-04-24T10:34:15.565Z,13.80
2023-04-24T10:36:57.805Z,13.50
2023-04-24T10:39:27.408Z,13.30
2023-04-24T10:41:58.486Z,13.10
2023-04-24T10:44:25.933Z,13.00
2023-04-24T10:46:57.417Z,12.70
2023-04-24T10:49:32.091Z,12.70
2023-04-24T10:52:06.380Z,12.50
2023-04-24T10:54:45.005Z,12.60
2023-04-24T10:57:21.255Z,12.60
2023-04-24T10:59:53.100Z,12.70
2023-04-24T11:02:41.399Z,12.70
2023-04-24T11:05:08.945Z,12.70
2023-04-24T11:08:13.190Z,13.00
2023-04-24T11:10:47.454Z,13.00
2023-04-24T11:13:18.400Z,12.90
2023-04-24T11:15:45.410Z,12.70
2023-04-24T11:18:16.986Z,12.70
2023-04-24T11:20:45.805Z,12.70
2023-04-24T11:23:14.151Z,12.60
2023-04-24T11:25:42.708Z,12.70
2023-04-24T11:28:17.332Z,12.80
2023-04-24T11:30:44.145Z,12.80
2023-04-24T11:33:10.998Z,12.80
2023-04-24T11:35:41.628Z,12.90
2023-04-24T11:38:23.351Z,13.00
2023-04-24T11:40:51.512Z,13.10
2023-04-24T11:43:20.366Z,13.30
2023-04-24T11:45:50.907Z,13.30
2023-04-24T11:48:23.459Z,13.40
2023-04-24T11:50:51.502Z,13.30
2023-04-24T11:53:21.737Z,13.00
2023-04-24T11:55:48.558Z,12.80
2023-04-24T11:58:15.337Z,12.60
2023-04-24T12:00:42.358Z,12.70
2023-04-24T12:03:11.233Z,12.80
2023-04-24T12:05:39.670Z,12.90
2023-04-24T12:08:07.407Z,12.80
2023-04-24T12:10:35.640Z,12.60
2023-04-24T12:13:02.700Z,12.50
2023-04-24T12:15:29.783Z,12.50
2023-04-24T12:17:57.671Z,12.40
2023-04-24T12:20:33.303Z,12.30
2023-04-24T12:23:03.453Z,12.30
2023-04-24T12:25:34.190Z,12.50
2023-04-24T12:28:04.099Z,12.60
2023-04-24T12:30:33.628Z,12.70
2023-04-24T12:33:01.864Z,12.80
2023-04-24T12:35:30.847Z,12.80
2023-04-24T12:38:07.521Z,12.50
2023-04-24T12:40:34.783Z,12.30
2023-04-24T12:43:01.619Z,12.20
2023-04-24T12:45:29.069Z,12.20
2023-04-24T12:47:56.255Z,12.20
2023-04-24T12:50:23.259Z,12.20
2023-04-24T12:52:50.004Z,12.10
2023-04-24T12:55:16.963Z,12.20
2023-04-24T12:57:43.798Z,12.40
2023-04-24T13:00:11.151Z,12.40
2023-04-24T13:02:38.447Z,12.30
2023-04-24T13:05:05.815Z,12.40
2023-04-24T13:07:34.227Z,12.30
2023-04-24T13:10:01.123Z,12.10
2023-04-24T13:12:28.089Z,12.00
2023-04-24T13:14:55.120Z,11.90
2023-04-24T13:17:23.238Z,11.80
2023-04-24T13:19:51.994Z,11.70
2023-04-24T13:22:22.077Z,11.70
2023-04-24T13:24:51.727Z,11.90
2023-04-24T13:27:19.197Z,12.10
2023-04-24T13:29:46.822Z,11.90
2023-04-24T13:32:13.853Z,11.50
2023-04-24T13:34:40.769Z,11.30
2023-04-24T13:37:13.792Z,11.20
2023-04-24T13:39:42.510Z,11.10
2023-04-24T13:42:09.985Z,11.10
2023-04-24T13:44:36.772Z,11.00
2023-04-24T13:47:03.687Z,11.00
2023-04-24T13:49:30.548Z,11.20
2023-04-24T13:51:57.658Z,11.00
2023-04-24T13:54:27.022Z,11.00
2023-04-24T13:56:54.397Z,11.00
2023-04-24T13:59:22.675Z,11.00
2023-04-24T14:01:49.783Z,11.00
2023-04-24T14:04:16.931Z,11.00
2023-04-24T14:06:44.909Z,10.90
2023-04-24T14:09:11.789Z,10.70
2023-04-24T14:11:38.891Z,10.60
2023-04-24T14:14:06.371Z,10.40
2023-04-24T14:16:33.432Z,10.20
2023-04-24T14:19:00.474Z,10.00
2023-04-24T14:21:27.844Z,9.80
2023-04-24T14:23:54.603Z,9.80
2023-04-24T14:26:21.636Z,9.70
2023-04-24T14:28:48.451Z,9.60
2023-04-24T14:31:15.367Z,9.60
2023-04-24T14:33:42.353Z,9.60
2023-04-24T14:36:09.279Z,9.40
2023-04-24T14:38:36.102Z,9.30
2023-04-24T14:41:10.582Z,9.30
2023-04-24T14:43:39.984Z,9.20
2023-04-24T14:46:06.953Z,9.20
2023-04-24T14:48:33.760Z,9.00
2023-04-24T14:51:00.630Z,9.10
2023-04-24T14:53:27.490Z,9.20
2023-04-24T14:55:55.026Z,9.20
2023-04-24T14:58:22.047Z,9.00
2023-04-24T15:00:52.792Z,9.20
2023-04-24T15:03:20.386Z,9.20
2023-04-24T15:05:47.573Z,9.20
2023-04-24T15:08:14.525Z,9.20
2023-04-24T15:10:41.352Z,9.20
2023-04-24T15:13:08.848Z,9.20
2023-04-24T15:15:35.774Z,9.20
2023-04-24T15:18:02.620Z,9.00
2023-04-24T15:20:29.578Z,9.10
2023-04-24T15:22:56.599Z,9.10
2023-04-24T15:25:23.506Z,8.90
2023-04-24T15:27:50.422Z,9.00
2023-04-24T15:30:17.389Z,8.90
2023-04-24T15:32:44.200Z,8.80
2023-04-24T15:35:11.796Z,8.80
2023-04-24T15:37:39.511Z,8.80
2023-04-24T15:40:08.571Z,8.80
2023-04-24T15:42:36.143Z,8.80
2023-04-24T15:45:04.384Z,8.70
2023-04-24T15:47:31.449Z,8.90
2023-04-24T15:49:58.779Z,8.80
2023-04-24T15:52:26.134Z,8.80
2023-04-24T15:54:52.982Z,8.70
2023-04-24T15:57:19.862Z,8.60
2023-04-24T15:59:46.783Z,8.60
2023-04-24T16:02:21.441Z,8.70
2023-04-24T16:04:49.822Z,8.70
2023-04-24T16:07:20.602Z,8.80
2023-04-24T16:09:47.461Z,8.70
2023-04-24T16:12:14.782Z,8.90
2023-04-24T16:14:42.233Z,8.90
2023-04-24T16:17:09.407Z,8.80
2023-04-24T16:19:36.267Z,8.90
2023-04-24T16:22:03.663Z,8.80
2023-04-24T16:24:31.056Z,8.70
2023-04-24T16:26:57.932Z,8.80
2023-04-24T16:29:24.928Z,8.80
2023-04-24T16:31:52.171Z,8.80
2023-04-24T16:34:19.490Z,8.80
2023-04-24T16:36:46.702Z,8.80
2023-04-24T16:39:13.750Z,8.90
2023-04-24T16:41:40.685Z,8.70
2023-04-24T16:44:07.634Z,8.70
2023-04-24T16:46:34.781Z,8.60
2023-04-24T16:49:01.808Z,8.70
2023-04-24T16:51:29.089Z,8.60
2023-04-24T16:53:56.155Z,8.60
2023-04-24T16:56:23.177Z,8.70
2023-04-24T16:58:50.477Z,8.80
2023-04-24T17:01:17.628Z,8.80
2023-04-24T17:03:45.026Z,8.70
2023-04-24T17:06:12.710Z,8.90
2023-04-24T17:08:39.816Z,8.80
2023-04-24T17:11:06.668Z,8.80
2023-04-24T17:13:33.717Z,8.80
2023-04-24T17:16:00.786Z,8.70
2023-04-24T17:18:27.648Z,8.70
2023-04-24T17:20:54.536Z,8.70
2023-04-24T17:23:21.521Z,8.70
2023-04-24T17:25:49.185Z,8.70
2023-04-24T17:28:34.686Z,8.70
2023-04-24T17:31:01.512Z,8.70
2023-04-24T17:33:30.906Z,8.80
2023-04-24T17:35:58.583Z,8.70
2023-04-24T17:38:25.759Z,8.60
2023-04-24T17:40:53.152Z,8.50
2023-04-24T17:43:20.894Z,8.50
2023-04-24T17:45:49.287Z,8.60
2023-04-24T17:48:16.675Z,8.50
2023-04-24T17:50:43.938Z,8.50
2023-04-24T17:53:11.164Z,8.40
2023-04-24T17:55:44.765Z,8.50
2023-04-24T17:58:12.100Z,8.50
2023-04-24T18:00:39.617Z,8.50
2023-04-24T18:03:08.173Z,8.50
2023-04-24T18:05:36.718Z,8.50
2023-04-24T18:08:04.341Z,8.50
2023-04-24T18:10:32.815Z,8.50
2023-04-24T18:12:59.931Z,8.40
2023-04-24T18:15:27.068Z,8.40
2023-04-24T18:17:54.176Z,8.30
2023-04-24T18:20:21.319Z,8.30
2023-04-24T18:22:48.472Z,8.30
2023-04-24T18:25:15.706Z,8.30
2023-04-24T18:27:42.836Z,8.30
2023-04-24T18:30:14.252Z,8.40
2023-04-24T18:32:42.182Z,8.40
2023-04-24T18:35:09.979Z,8.30
2023-04-24T18:37:36.782Z,8.30
2023-04-24T18:40:03.967Z,8.30
2023-04-24T18:42:30.934Z,8.30
2023-04-24T18:45:01.713Z,8.30
2023-04-24T18:47:29.290Z,8.20
2023-04-24T18:49:56.388Z,8.20
2023-04-24T18:52:24.533Z,8.20
2023-04-24T18:54:51.616Z,8.10
2023-04-24T18:57:18.469Z,8.10
2023-04-24T18:59:45.361Z,8.00
2023-04-24T19:02:52.911Z,8.00
2023-04-24T19:05:19.790Z,8.00
2023-04-24T19:07:46.582Z,7.90
2023-04-24T19:10:13.664Z,7.90
2023-04-24T19:12:40.647Z,8.00
2023-04-24T19:15:11.828Z,8.00
2023-04-24T19:17:39.088Z,8.00
2023-04-24T19:20:06.855Z,8.00
2023-04-24T19:22:34.640Z,8.10
2023-04-24T19:25:01.849Z,8.10
2023-04-24T19:27:28.636Z,8.10
2023-04-24T19:29:55.473Z,8.00
2023-04-24T19:32:22.436Z,7.90
2023-04-24T19:34:49.411Z,7.90
2023-04-24T19:37:16.442Z,7.90
2023-04-24T19:39:43.299Z,7.80
2023-04-24T19:42:10.360Z,7.80
2023-04-24T19:44:37.397Z,7.70
2023-04-24T19:47:04.322Z,7.80
2023-04-24T19:49:31.302Z,7.80
2023-04-24T19:51:58.271Z,7.80
2023-04-24T19:54:25.752Z,7.90
2023-04-24T19:56:53.014Z,7.90
2023-04-24T19:59:19.802Z,7.90
2023-04-24T20:01:47.003Z,7.90
2023-04-24T20:04:14.290Z,7.90
2023-04-24T20:06:41.291Z,7.90
2023-04-24T20:09:08.112Z,7.80
2023-04-24T20:11:35.033Z,7.90
2023-04-24T20:14:03.726Z,7.80
2023-04-24T20:16:31.289Z,7.90
2023-04-24T20:18:58.820Z,7.90
2023-04-24T20:21:28.882Z,7.80
2023-04-24T20:23:56.155Z,7.90
2023-04-24T20:26:23.581Z,7.80
2023-04-24T20:28:50.802Z,7.80
2023-04-24T20:31:18.070Z,7.80
2023-04-24T20:33:45.623Z,7.80
2023-04-24T20:36:12.513Z,7.80
2023-04-24T20:38:39.390Z,7.80
2023-04-24T20:41:08.399Z,7.80
2023-04-24T20:43:35.487Z,7.80
2023-04-24T20:46:02.733Z,7.80
2023-04-24T20:48:29.621Z,7.80
2023-04-24T20:50:56.627Z,7.80
2023-04-24T20:53:23.625Z,7.80
2023-04-24T20:55:50.798Z,7.80
2023-04-24T20:58:24.576Z,7.80
2023-04-24T21:00:52.100Z,7.70
2023-04-24T21:03:19.705Z,7.70
2023-04-24T21:05:47.085Z,7.70
2023-04-24T21:08:14.075Z,7.80
2023-04-24T21:10:41.028Z,7.80
2023-04-24T21:13:08.049Z,7.80
2023-04-24T21:15:35.219Z,7.80
2023-04-24T21:18:02.711Z,7.90
2023-04-24T21:20:29.791Z,7.80
2023-04-24T21:22:56.631Z,7.80
2023-04-24T21:25:23.448Z,7.90
2023-04-24T21:27:50.495Z,7.90
2023-04-24T21:30:17.338Z,7.80
2023-04-24T21:32:44.548Z,7.80
2023-04-24T21:35:11.442Z,7.80
2023-04-24T21:37:39.789Z,7.80
2023-04-24T21:40:08.037Z,7.80
2023-04-24T21:42:34.946Z,7.80
2023-04-24T21:45:01.748Z,7.80
2023-04-24T21:47:28.598Z,7.80
2023-04-24T21:49:55.413Z,7.80
2023-04-24T21:52:22.557Z,7.90
2023-04-24T21:54:49.443Z,7.80
2023-04-24T21:57:16.458Z,7.80
2023-04-24T21:59:43.600Z,7.90
2023-04-24T22:02:10.690Z,7.80
2023-04-24T22:04:37.898Z,7.80
2023-04-24T22:07:05.018Z,7.90
2023-04-24T22:09:31.867Z,7.90
2023-04-24T22:11:58.711Z,7.90
2023-04-24T22:14:25.537Z,7.90
2023-04-24T22:16:53.952Z,7.90
2023-04-24T22:19:20.768Z,7.90
2023-04-24T22:21:47.662Z,7.90
2023-04-24T22:24:14.641Z,7.90
2023-04-24T22:26:41.556Z,7.90
2023-04-24T22:29:08.308Z,7.90
2023-04-24T22:31:35.194Z,7.80
2023-04-24T22:34:02.048Z,7.80
2023-04-24T22:36:28.878Z,7.80
2023-04-24T22:38:55.845Z,7.80
2023-04-24T22:41:22.719Z,7.80
2023-04-24T22:43:50.289Z,7.80
2023-04-24T22:46:17.897Z,7.90
2023-04-24T22:48:45.622Z,7.80
2023-04-24T22:51:12.519Z,7.80
2023-04-24T22:53:39.325Z,7.80
2023-04-24T22:56:06.637Z,7.80
2023-04-24T22:58:33.553Z,7.80
2023-04-24T23:01:00.407Z,7.70
2023-04-24T23:03:27.464Z,7.70
2023-04-24T23:05:54.392Z,7.70
2023-04-24T23:08:21.226Z,7.70
2023-04-24T23:10:48.114Z,7.70
2023-04-24T23:13:14.951Z,7.70
2023-04-24T23:15:42.157Z,7.60
2023-04-24T23:18:08.928Z,7.60
2023-04-24T23:20:35.800Z,7.50
2023-04-24T23:23:02.605Z,7.50
2023-04-24T23:25:29.413Z,7.50
2023-04-24T23:27:56.647Z,7.50
2023-04-24T23:30:23.548Z,7.50
2023-04-24T23:32:50.471Z,7.50
2023-04-24T23:35:17.269Z,7.50
2023-04-24T23:37:44.142Z,7.40
2023-04-24T23:40:11.137Z,7.40
2023-04-24T23:42:38.212Z,7.40
2023-04-24T23:45:05.673Z,7.40
2023-04-24T23:47:32.473Z,7.40
2023-04-24T23:49:59.306Z,7.30
2023-04-24T23:52:26.224Z,7.30
2023-04-24T23:54:53.166Z,7.40
2023-04-24T23:57:19.959Z,7.40
2023-04-24T23:59:46.757Z,7.30
